sensor_id;sensor_type;location;lat;lon;timestamp;pressure;altitude;pressure_sealevel;temperature;humidity
21185;BME280;18176;49.502;11.754;2023-02-12T00:00:55;98774.13;;;7.72;75.30
21185;BME280;18176;49.502;11.754;2023-02-12T00:04:56;98777.59;;;7.89;74.31
21185;BME280;18176;49.502;11.754;2023-02-12T00:08:59;98774.09;;;7.80;74.48
21185;BME280;18176;49.502;11.754;2023-02-12T00:13:01;98781.06;;;7.73;75.20
21185;BME280;18176;49.502;11.754;2023-02-12T00:17:01;98774.78;;;7.83;74.65
21185;BME280;18176;49.502;11.754;2023-02-12T00:21:02;98774.81;;;7.66;74.99
21185;BME280;18176;49.502;11.754;2023-02-12T00:25:08;98764.41;;;7.73;75.20
21185;BME280;18176;49.502;11.754;2023-02-12T00:29:10;98771.50;;;7.48;76.37
21185;BME280;18176;49.502;11.754;2023-02-12T00:33:10;98779.88;;;7.76;75.45
21185;BME280;18176;49.502;11.754;2023-02-12T00:37:11;98784.69;;;7.40;77.14
21185;BME280;18176;49.502;11.754;2023-02-12T00:41:14;98783.72;;;7.57;76.61
21185;BME280;18176;49.502;11.754;2023-02-12T00:45:15;98781.09;;;7.57;76.77
21185;BME280;18176;49.502;11.754;2023-02-12T00:49:15;98775.13;;;7.63;76.85
21185;BME280;18176;49.502;11.754;2023-02-12T00:53:19;98771.84;;;7.53;76.62
21185;BME280;18176;49.502;11.754;2023-02-12T00:57:23;98777.75;;;7.23;78.30
21185;BME280;18176;49.502;11.754;2023-02-12T01:01:24;98790.28;;;7.37;77.80
21185;BME280;18176;49.502;11.754;2023-02-12T01:05:26;98774.47;;;7.37;77.56
21185;BME280;18176;49.502;11.754;2023-02-12T01:09:27;98791.97;;;7.54;77.17
21185;BME280;18176;49.502;11.754;2023-02-12T01:13:31;98793.28;;;7.42;77.88
21185;BME280;18176;49.502;11.754;2023-02-12T01:17:32;98794.94;;;7.43;77.64
21185;BME280;18176;49.502;11.754;2023-02-12T01:21:34;98786.16;;;7.35;78.32
21185;BME280;18176;49.502;11.754;2023-02-12T01:25:34;98793.25;;;7.26;78.73
21185;BME280;18176;49.502;11.754;2023-02-12T01:29:39;98801.50;;;7.39;78.33
21185;BME280;18176;49.502;11.754;2023-02-12T01:33:42;98796.09;;;7.41;78.08
21185;BME280;18176;49.502;11.754;2023-02-12T01:37:43;98805.47;;;7.43;77.83
21185;BME280;18176;49.502;11.754;2023-02-12T01:41:44;98796.25;;;7.47;77.64
21185;BME280;18176;49.502;11.754;2023-02-12T01:45:50;98794.91;;;7.35;78.09
21185;BME280;18176;49.502;11.754;2023-02-12T01:49:52;98803.16;;;7.48;77.83
21185;BME280;18176;49.502;11.754;2023-02-12T01:53:59;98809.25;;;7.49;77.53
21185;BME280;18176;49.502;11.754;2023-02-12T01:58:03;98812.72;;;7.33;78.09
21185;BME280;18176;49.502;11.754;2023-02-12T02:02:09;98806.09;;;7.21;78.79
21185;BME280;18176;49.502;11.754;2023-02-12T02:06:14;98812.41;;;7.36;77.83
21185;BME280;18176;49.502;11.754;2023-02-12T02:10:17;98812.75;;;7.41;77.72
21185;BME280;18176;49.502;11.754;2023-02-12T02:14:18;98807.75;;;7.22;78.00
21185;BME280;18176;49.502;11.754;2023-02-12T02:18:42;98817.81;;;7.35;77.76
21185;BME280;18176;49.502;11.754;2023-02-12T02:22:59;98823.91;;;7.19;78.61
21185;BME280;18176;49.502;11.754;2023-02-12T02:27:29;98818.78;;;7.26;78.31
21185;BME280;18176;49.502;11.754;2023-02-12T02:31:42;98823.56;;;7.30;78.07
21185;BME280;18176;49.502;11.754;2023-02-12T02:35:52;98807.44;;;7.25;78.43
21185;BME280;18176;49.502;11.754;2023-02-12T02:40:06;98806.78;;;7.31;78.34
21185;BME280;18176;49.502;11.754;2023-02-12T02:44:15;98816.66;;;7.37;78.35
21185;BME280;18176;49.502;11.754;2023-02-12T02:48:26;98808.91;;;7.20;78.89
21185;BME280;18176;49.502;11.754;2023-02-12T02:52:35;98811.88;;;7.25;78.93
21185;BME280;18176;49.502;11.754;2023-02-12T02:56:42;98802.16;;;7.09;79.63
21185;BME280;18176;49.502;11.754;2023-02-12T03:00:52;98802.78;;;6.95;80.24
21185;BME280;18176;49.502;11.754;2023-02-12T03:05:02;98813.09;;;6.88;80.73
21185;BME280;18176;49.502;11.754;2023-02-12T03:09:13;98808.78;;;6.71;81.78
21185;BME280;18176;49.502;11.754;2023-02-12T03:13:21;98815.59;;;6.90;81.43
21185;BME280;18176;49.502;11.754;2023-02-12T03:17:30;98823.19;;;6.93;81.55
21185;BME280;18176;49.502;11.754;2023-02-12T03:21:45;98823.38;;;6.99;81.57
21185;BME280;18176;49.502;11.754;2023-02-12T03:25:53;98823.91;;;7.11;80.84
21185;BME280;18176;49.502;11.754;2023-02-12T03:29:57;98829.81;;;7.13;80.92
21185;BME280;18176;49.502;11.754;2023-02-12T03:34:10;98827.28;;;6.95;81.78
21185;BME280;18176;49.502;11.754;2023-02-12T03:38:31;98834.41;;;7.03;81.64
21185;BME280;18176;49.502;11.754;2023-02-12T03:42:39;98838.34;;;6.99;81.64
21185;BME280;18176;49.502;11.754;2023-02-12T03:46:57;98842.44;;;6.93;81.69
21185;BME280;18176;49.502;11.754;2023-02-12T03:51:10;98839.69;;;7.03;81.40
21185;BME280;18176;49.502;11.754;2023-02-12T03:55:18;98837.69;;;7.05;81.45
21185;BME280;18176;49.502;11.754;2023-02-12T03:59:20;98808.31;;;6.84;81.40
21185;BME280;18176;49.502;11.754;2023-02-12T04:03:21;98835.72;;;7.07;81.45
21185;BME280;18176;49.502;11.754;2023-02-12T04:07:22;98838.66;;;6.96;82.00
21185;BME280;18176;49.502;11.754;2023-02-12T04:11:35;98840.81;;;7.00;81.74
21185;BME280;18176;49.502;11.754;2023-02-12T04:16:02;98849.56;;;6.93;82.48
21185;BME280;18176;49.502;11.754;2023-02-12T04:20:18;98860.75;;;7.03;82.27
21185;BME280;18176;49.502;11.754;2023-02-12T04:24:38;98854.81;;;7.01;82.27
21185;BME280;18176;49.502;11.754;2023-02-12T04:28:57;98856.19;;;7.21;81.19
21185;BME280;18176;49.502;11.754;2023-02-12T04:33:05;98860.19;;;7.25;81.03
21185;BME280;18176;49.502;11.754;2023-02-12T04:37:15;98873.19;;;7.27;81.27
21185;BME280;18176;49.502;11.754;2023-02-12T04:41:17;98862.13;;;7.15;81.43
21185;BME280;18176;49.502;11.754;2023-02-12T04:45:24;98874.16;;;7.26;81.26
21185;BME280;18176;49.502;11.754;2023-02-12T04:49:26;98881.22;;;7.09;81.95
21185;BME280;18176;49.502;11.754;2023-02-12T04:53:27;98881.91;;;7.19;81.41
21185;BME280;18176;49.502;11.754;2023-02-12T04:57:28;98885.84;;;7.15;81.70
21185;BME280;18176;49.502;11.754;2023-02-12T05:01:32;98887.47;;;7.16;81.66
21185;BME280;18176;49.502;11.754;2023-02-12T05:05:33;98881.91;;;7.19;81.00
21185;BME280;18176;49.502;11.754;2023-02-12T05:09:34;98865.47;;;7.41;79.73
21185;BME280;18176;49.502;11.754;2023-02-12T05:13:35;98878.00;;;7.55;79.16
21185;BME280;18176;49.502;11.754;2023-02-12T05:17:40;98878.31;;;7.36;80.22
21185;BME280;18176;49.502;11.754;2023-02-12T05:21:42;98886.50;;;7.17;81.20
21185;BME280;18176;49.502;11.754;2023-02-12T05:25:42;98881.06;;;7.11;82.22
21185;BME280;18176;49.502;11.754;2023-02-12T05:29:42;98883.19;;;7.07;82.35
21185;BME280;18176;49.502;11.754;2023-02-12T05:33:48;98894.72;;;7.14;82.40
21185;BME280;18176;49.502;11.754;2023-02-12T05:37:48;98900.97;;;7.05;82.61
21185;BME280;18176;49.502;11.754;2023-02-12T05:41:49;98900.66;;;7.16;82.50
21185;BME280;18176;49.502;11.754;2023-02-12T05:45:49;98889.16;;;7.17;82.04
21185;BME280;18176;49.502;11.754;2023-02-12T05:49:52;98897.41;;;7.30;81.70
21185;BME280;18176;49.502;11.754;2023-02-12T05:53:58;98905.50;;;7.37;81.32
21185;BME280;18176;49.502;11.754;2023-02-12T05:58:00;98906.69;;;7.34;81.25
21185;BME280;18176;49.502;11.754;2023-02-12T06:02:00;98911.25;;;7.32;81.23
21185;BME280;18176;49.502;11.754;2023-02-12T06:06:04;98916.22;;;7.27;81.43
21185;BME280;18176;49.502;11.754;2023-02-12T06:10:07;98915.56;;;7.25;81.34
21185;BME280;18176;49.502;11.754;2023-02-12T06:14:12;98915.56;;;7.33;80.63
21185;BME280;18176;49.502;11.754;2023-02-12T06:18:13;98919.47;;;7.21;80.89
21185;BME280;18176;49.502;11.754;2023-02-12T06:22:16;98919.78;;;7.10;81.23
21185;BME280;18176;49.502;11.754;2023-02-12T06:26:17;98921.09;;;7.14;81.10
21185;BME280;18176;49.502;11.754;2023-02-12T06:30:19;98933.19;;;7.25;80.77
21185;BME280;18176;49.502;11.754;2023-02-12T06:34:20;98938.31;;;7.34;80.45
21185;BME280;18176;49.502;11.754;2023-02-12T06:38:23;98950.19;;;7.38;80.20
21185;BME280;18176;49.502;11.754;2023-02-12T06:42:23;98944.88;;;7.22;80.96
21185;BME280;18176;49.502;11.754;2023-02-12T06:46:24;98945.06;;;7.29;80.69
21185;BME280;18176;49.502;11.754;2023-02-12T06:50:26;98951.16;;;7.29;80.94
21185;BME280;18176;49.502;11.754;2023-02-12T06:54:30;98946.19;;;7.26;80.93
21185;BME280;18176;49.502;11.754;2023-02-12T06:58:33;98949.00;;;7.25;81.37
21185;BME280;18176;49.502;11.754;2023-02-12T07:02:34;98952.47;;;7.25;81.62
21185;BME280;18176;49.502;11.754;2023-02-12T07:06:35;98956.91;;;7.33;81.32
21185;BME280;18176;49.502;11.754;2023-02-12T07:10:39;98956.09;;;7.32;80.84
21185;BME280;18176;49.502;11.754;2023-02-12T07:14:40;98974.22;;;7.27;81.32
21185;BME280;18176;49.502;11.754;2023-02-12T07:18:41;98963.38;;;7.46;81.20
21185;BME280;18176;49.502;11.754;2023-02-12T07:22:42;98963.38;;;7.46;80.79
21185;BME280;18176;49.502;11.754;2023-02-12T07:26:46;98966.72;;;7.64;80.59
21185;BME280;18176;49.502;11.754;2023-02-12T07:30:47;98976.69;;;7.87;79.87
21185;BME280;18176;49.502;11.754;2023-02-12T07:34:47;98967.44;;;7.74;80.45
21185;BME280;18176;49.502;11.754;2023-02-12T07:38:48;98967.78;;;7.88;80.09
21185;BME280;18176;49.502;11.754;2023-02-12T07:42:54;98971.41;;;7.95;80.25
21185;BME280;18176;49.502;11.754;2023-02-12T07:46:54;98972.75;;;8.07;79.51
21185;BME280;18176;49.502;11.754;2023-02-12T07:50:55;98972.06;;;8.13;79.51
21185;BME280;18176;49.502;11.754;2023-02-12T07:54:55;98982.31;;;8.16;79.58
21185;BME280;18176;49.502;11.754;2023-02-12T07:59:01;98979.69;;;8.24;79.61
21185;BME280;18176;49.502;11.754;2023-02-12T08:03:01;98975.09;;;8.34;79.64
21185;BME280;18176;49.502;11.754;2023-02-12T08:07:02;98984.50;;;8.44;79.14
21185;BME280;18176;49.502;11.754;2023-02-12T08:11:03;98983.84;;;8.59;78.43
21185;BME280;18176;49.502;11.754;2023-02-12T08:15:08;98981.31;;;8.73;77.87
21185;BME280;18176;49.502;11.754;2023-02-12T08:19:12;98979.66;;;8.88;77.02
21185;BME280;18176;49.502;11.754;2023-02-12T08:23:20;98986.53;;;9.13;75.84
21185;BME280;18176;49.502;11.754;2023-02-12T08:27:20;98981.56;;;9.10;75.66
21185;BME280;18176;49.502;11.754;2023-02-12T08:31:26;98984.22;;;9.10;75.37
21185;BME280;18176;49.502;11.754;2023-02-12T08:35:28;98978.41;;;9.23;74.53
21185;BME280;18176;49.502;11.754;2023-02-12T08:39:29;98977.19;;;9.26;73.64
21185;BME280;18176;49.502;11.754;2023-02-12T08:43:30;98975.97;;;9.44;73.41
21185;BME280;18176;49.502;11.754;2023-02-12T08:47:33;98976.78;;;9.53;73.13
21185;BME280;18176;49.502;11.754;2023-02-12T08:51:36;98991.75;;;9.60;72.85
21185;BME280;18176;49.502;11.754;2023-02-12T08:55:37;98988.88;;;9.78;72.79
21185;BME280;18176;49.502;11.754;2023-02-12T08:59:38;98986.81;;;10.19;71.46
21185;BME280;18176;49.502;11.754;2023-02-12T09:03:42;98980.97;;;10.23;71.29
21185;BME280;18176;49.502;11.754;2023-02-12T09:07:43;98986.44;;;10.44;68.90
21185;BME280;18176;49.502;11.754;2023-02-12T09:11:44;98987.94;;;10.24;69.27
21185;BME280;18176;49.502;11.754;2023-02-12T09:15:46;98994.09;;;10.39;68.94
21185;BME280;18176;49.502;11.754;2023-02-12T09:19:49;98986.19;;;10.54;68.58
21185;BME280;18176;49.502;11.754;2023-02-12T09:23:50;98988.50;;;10.72;68.12
21185;BME280;18176;49.502;11.754;2023-02-12T09:27:51;98981.13;;;10.96;67.13
21185;BME280;18176;49.502;11.754;2023-02-12T09:31:52;98986.91;;;11.00;66.10
21185;BME280;18176;49.502;11.754;2023-02-12T09:35:59;98989.84;;;11.05;66.23
21185;BME280;18176;49.502;11.754;2023-02-12T09:39:59;98994.56;;;11.24;65.27
21185;BME280;18176;49.502;11.754;2023-02-12T09:44:08;98994.56;;;11.24;65.61
21185;BME280;18176;49.502;11.754;2023-02-12T09:48:44;98996.94;;;11.19;65.33
21185;BME280;18176;49.502;11.754;2023-02-12T09:52:50;98991.72;;;10.96;66.20
21185;BME280;18176;49.502;11.754;2023-02-12T09:56:59;99003.09;;;11.19;66.03
21185;BME280;18176;49.502;11.754;2023-02-12T10:01:11;98971.50;;;11.39;65.66
21185;BME280;18176;49.502;11.754;2023-02-12T10:05:17;98999.69;;;11.69;64.28
21185;BME280;18176;49.502;11.754;2023-02-12T10:09:46;98999.84;;;11.82;64.79
21185;BME280;18176;49.502;11.754;2023-02-12T10:14:03;99004.19;;;12.26;63.66
21185;BME280;18176;49.502;11.754;2023-02-12T10:18:41;99006.69;;;12.55;61.94
21185;BME280;18176;49.502;11.754;2023-02-12T10:23:08;98996.50;;;12.58;61.81
21185;BME280;18176;49.502;11.754;2023-02-12T10:27:15;99011.56;;;12.73;60.83
21185;BME280;18176;49.502;11.754;2023-02-12T10:31:24;99003.47;;;12.87;59.83
21185;BME280;18176;49.502;11.754;2023-02-12T10:35:29;98996.19;;;12.68;60.69
21185;BME280;18176;49.502;11.754;2023-02-12T10:39:36;98995.66;;;12.79;60.22
21185;BME280;18176;49.502;11.754;2023-02-12T10:43:43;98935.13;;;12.60;59.57
21185;BME280;18176;49.502;11.754;2023-02-12T10:47:45;98983.28;;;12.99;59.18
21185;BME280;18176;49.502;11.754;2023-02-12T10:52:14;98993.31;;;13.25;58.80
21185;BME280;18176;49.502;11.754;2023-02-12T10:56:20;98987.34;;;13.64;57.70
21185;BME280;18176;49.502;11.754;2023-02-12T11:00:31;98998.28;;;13.82;56.95
21185;BME280;18176;49.502;11.754;2023-02-12T11:04:32;98977.22;;;14.00;56.76
21185;BME280;18176;49.502;11.754;2023-02-12T11:08:36;98983.25;;;14.41;56.18
21185;BME280;18176;49.502;11.754;2023-02-12T11:12:41;98985.53;;;14.44;55.21
21185;BME280;18176;49.502;11.754;2023-02-12T11:16:53;98978.13;;;14.46;54.66
21185;BME280;18176;49.502;11.754;2023-02-12T11:20:56;98989.38;;;14.22;54.95
21185;BME280;18176;49.502;11.754;2023-02-12T11:25:07;98981.38;;;14.16;55.28
21185;BME280;18176;49.502;11.754;2023-02-12T11:29:19;98895.44;;;13.27;56.16
21185;BME280;18176;49.502;11.754;2023-02-12T11:33:31;98984.47;;;13.59;56.89
21185;BME280;18176;49.502;11.754;2023-02-12T11:37:33;98976.56;;;13.85;56.66
21185;BME280;18176;49.502;11.754;2023-02-12T11:41:38;98977.66;;;14.10;56.29
21185;BME280;18176;49.502;11.754;2023-02-12T11:45:44;98979.97;;;14.39;55.67
21185;BME280;18176;49.502;11.754;2023-02-12T11:49:53;98972.00;;;14.65;54.54
21185;BME280;18176;49.502;11.754;2023-02-12T11:53:58;98957.22;;;14.56;54.18
21185;BME280;18176;49.502;11.754;2023-02-12T11:58:08;98968.69;;;14.96;53.76
21185;BME280;18176;49.502;11.754;2023-02-12T12:02:23;98965.84;;;14.45;53.71
21185;BME280;18176;49.502;11.754;2023-02-12T12:06:35;98968.28;;;14.53;54.42
21185;BME280;18176;49.502;11.754;2023-02-12T12:10:44;98976.50;;;14.71;54.11
21185;BME280;18176;49.502;11.754;2023-02-12T12:14:49;98950.38;;;14.21;54.88
21185;BME280;18176;49.502;11.754;2023-02-12T12:19:10;98940.34;;;14.10;54.99
21185;BME280;18176;49.502;11.754;2023-02-12T12:23:35;98969.25;;;14.13;55.38
21185;BME280;18176;49.502;11.754;2023-02-12T12:27:51;98960.03;;;14.22;54.30
21185;BME280;18176;49.502;11.754;2023-02-12T12:32:05;98952.66;;;14.11;54.81
21185;BME280;18176;49.502;11.754;2023-02-12T12:36:41;98938.22;;;13.79;55.09
21185;BME280;18176;49.502;11.754;2023-02-12T12:41:01;98951.78;;;13.91;54.90
21185;BME280;18176;49.502;11.754;2023-02-12T12:45:18;98959.16;;;13.89;55.71
21185;BME280;18176;49.502;11.754;2023-02-12T12:49:43;98946.44;;;13.91;55.21
21185;BME280;18176;49.502;11.754;2023-02-12T12:54:06;98964.94;;;14.12;54.94
21185;BME280;18176;49.502;11.754;2023-02-12T12:58:25;98959.41;;;14.14;54.75
21185;BME280;18176;49.502;11.754;2023-02-12T13:07:48;98947.72;;;14.01;55.32
21185;BME280;18176;49.502;11.754;2023-02-12T13:12:07;98960.06;;;14.35;54.89
21185;BME280;18176;49.502;11.754;2023-02-12T13:16:22;98964.53;;;14.15;55.08
21185;BME280;18176;49.502;11.754;2023-02-12T13:20:39;98966.16;;;14.03;55.15
21185;BME280;18176;49.502;11.754;2023-02-12T13:24:48;98962.88;;;14.07;55.42
21185;BME280;18176;49.502;11.754;2023-02-12T13:28:55;98969.03;;;14.08;55.58
21185;BME280;18176;49.502;11.754;2023-02-12T13:33:09;98963.66;;;13.88;55.96
21185;BME280;18176;49.502;11.754;2023-02-12T13:37:19;98978.00;;;13.81;55.95
21185;BME280;18176;49.502;11.754;2023-02-12T13:41:24;98971.44;;;13.83;55.93
21185;BME280;18176;49.502;11.754;2023-02-12T13:45:39;98972.69;;;13.81;56.13
21185;BME280;18176;49.502;11.754;2023-02-12T13:49:50;98980.91;;;13.92;55.82
21185;BME280;18176;49.502;11.754;2023-02-12T13:58:49;98955.88;;;13.87;55.43
21185;BME280;18176;49.502;11.754;2023-02-12T14:02:51;98966.06;;;13.77;55.65
21185;BME280;18176;49.502;11.754;2023-02-12T14:07:01;98964.53;;;13.42;56.45
21185;BME280;18176;49.502;11.754;2023-02-12T14:11:06;98958.63;;;13.53;56.67
21185;BME280;18176;49.502;11.754;2023-02-12T14:15:22;98959.00;;;13.43;56.31
21185;BME280;18176;49.502;11.754;2023-02-12T14:19:58;98953.25;;;13.40;56.51
21185;BME280;18176;49.502;11.754;2023-02-12T14:24:51;98954.25;;;13.99;54.99
21185;BME280;18176;49.502;11.754;2023-02-12T14:28:54;98941.56;;;14.07;54.88
21185;BME280;18176;49.502;11.754;2023-02-12T14:33:18;98945.59;;;13.84;54.36
21185;BME280;18176;49.502;11.754;2023-02-12T14:37:37;98933.66;;;13.54;55.31
21185;BME280;18176;49.502;11.754;2023-02-12T14:41:40;98937.13;;;13.07;56.56
21185;BME280;18176;49.502;11.754;2023-02-12T14:45:40;98941.22;;;13.09;56.83
21185;BME280;18176;49.502;11.754;2023-02-12T14:49:45;98940.47;;;13.28;56.75
21185;BME280;18176;49.502;11.754;2023-02-12T14:53:48;98925.53;;;12.93;57.18
21185;BME280;18176;49.502;11.754;2023-02-12T14:57:58;98934.28;;;13.15;56.92
21185;BME280;18176;49.502;11.754;2023-02-12T15:02:00;98933.75;;;13.26;56.79
21185;BME280;18176;49.502;11.754;2023-02-12T15:06:13;98939.94;;;13.40;56.45
21185;BME280;18176;49.502;11.754;2023-02-12T15:10:18;98905.63;;;13.17;56.26
21185;BME280;18176;49.502;11.754;2023-02-12T15:14:24;98928.94;;;13.08;57.22
21185;BME280;18176;49.502;11.754;2023-02-12T15:18:34;98926.00;;;13.03;57.53
21185;BME280;18176;49.502;11.754;2023-02-12T15:22:42;98932.84;;;12.85;57.85
21185;BME280;18176;49.502;11.754;2023-02-12T15:26:47;98924.13;;;12.63;58.67
21185;BME280;18176;49.502;11.754;2023-02-12T15:30:52;98912.94;;;12.46;58.92
21185;BME280;18176;49.502;11.754;2023-02-12T15:34:55;98922.66;;;12.33;59.82
21185;BME280;18176;49.502;11.754;2023-02-12T15:38:58;98918.75;;;12.08;60.53
21185;BME280;18176;49.502;11.754;2023-02-12T15:43:03;98905.47;;;11.86;60.96
21185;BME280;18176;49.502;11.754;2023-02-12T15:47:13;98923.81;;;11.81;61.32
21185;BME280;18176;49.502;11.754;2023-02-12T15:51:31;98921.78;;;11.83;61.47
21185;BME280;18176;49.502;11.754;2023-02-12T15:55:37;98921.78;;;11.83;61.38
21185;BME280;18176;49.502;11.754;2023-02-12T15:59:39;98922.19;;;11.80;61.27
21185;BME280;18176;49.502;11.754;2023-02-12T16:03:42;98911.22;;;11.54;61.82
21185;BME280;18176;49.502;11.754;2023-02-12T16:07:45;98909.28;;;11.27;62.63
21185;BME280;18176;49.502;11.754;2023-02-12T16:11:46;98922.84;;;11.32;62.85
21185;BME280;18176;49.502;11.754;2023-02-12T16:16:04;98892.38;;;10.99;63.36
21185;BME280;18176;49.502;11.754;2023-02-12T16:20:22;98917.53;;;11.03;63.87
21185;BME280;18176;49.502;11.754;2023-02-12T16:24:31;98928.44;;;10.93;64.45
21185;BME280;18176;49.502;11.754;2023-02-12T16:28:32;98910.03;;;10.92;64.43
21185;BME280;18176;49.502;11.754;2023-02-12T16:32:36;98923.03;;;10.87;65.06
21185;BME280;18176;49.502;11.754;2023-02-12T16:36:45;98908.13;;;10.71;64.90
21185;BME280;18176;49.502;11.754;2023-02-12T16:41:24;98935.28;;;10.88;64.58
21185;BME280;18176;49.502;11.754;2023-02-12T16:45:40;98937.75;;;10.89;64.27
21185;BME280;18176;49.502;11.754;2023-02-12T16:49:53;98936.03;;;10.82;64.47
21185;BME280;18176;49.502;11.754;2023-02-12T16:53:59;98946.00;;;10.80;64.96
21185;BME280;18176;49.502;11.754;2023-02-12T16:58:00;98946.72;;;10.74;64.91
21185;BME280;18176;49.502;11.754;2023-02-12T17:02:05;98948.44;;;10.67;65.19
21185;BME280;18176;49.502;11.754;2023-02-12T17:06:09;98928.28;;;10.28;65.97
21185;BME280;18176;49.502;11.754;2023-02-12T17:10:16;98957.19;;;10.52;65.83
21185;BME280;18176;49.502;11.754;2023-02-12T17:14:18;98953.91;;;10.50;66.00
21185;BME280;18176;49.502;11.754;2023-02-12T17:18:19;98958.66;;;10.40;66.34
21185;BME280;18176;49.502;11.754;2023-02-12T17:22:25;98970.63;;;10.51;66.09
21185;BME280;18176;49.502;11.754;2023-02-12T17:26:28;98970.34;;;10.46;66.15
21185;BME280;18176;49.502;11.754;2023-02-12T17:30:29;98942.66;;;10.11;66.69
21185;BME280;18176;49.502;11.754;2023-02-12T17:34:29;98940.94;;;10.18;66.59
21185;BME280;18176;49.502;11.754;2023-02-12T17:38:44;98968.78;;;10.37;66.35
21185;BME280;18176;49.502;11.754;2023-02-12T17:42:47;98953.84;;;10.21;66.63
21185;BME280;18176;49.502;11.754;2023-02-12T17:46:47;98970.06;;;10.18;67.34
21185;BME280;18176;49.502;11.754;2023-02-12T17:50:53;98976.66;;;10.22;67.53
21185;BME280;18176;49.502;11.754;2023-02-12T17:54:54;98986.03;;;10.10;67.91
21185;BME280;18176;49.502;11.754;2023-02-12T17:58:58;98972.28;;;10.07;67.96
21185;BME280;18176;49.502;11.754;2023-02-12T18:02:58;98966.16;;;10.06;67.74
21185;BME280;18176;49.502;11.754;2023-02-12T18:06:58;98978.06;;;10.10;67.63
21185;BME280;18176;49.502;11.754;2023-02-12T18:11:04;98992.75;;;10.21;67.71
21185;BME280;18176;49.502;11.754;2023-02-12T18:15:09;98988.06;;;10.00;68.24
21185;BME280;18176;49.502;11.754;2023-02-12T18:19:11;98989.22;;;9.98;69.00
21185;BME280;18176;49.502;11.754;2023-02-12T18:23:13;98978.28;;;9.78;69.57
21185;BME280;18176;49.502;11.754;2023-02-12T18:27:15;98987.63;;;9.88;69.67
21185;BME280;18176;49.502;11.754;2023-02-12T18:31:19;98964.75;;;9.73;69.61
21185;BME280;18176;49.502;11.754;2023-02-12T18:35:20;98989.63;;;9.86;69.81
21185;BME280;18176;49.502;11.754;2023-02-12T18:39:21;98932.63;;;9.45;69.58
21185;BME280;18176;49.502;11.754;2023-02-12T18:43:22;98967.38;;;9.73;69.53
21185;BME280;18176;49.502;11.754;2023-02-12T18:47:25;98981.69;;;9.86;69.31
21185;BME280;18176;49.502;11.754;2023-02-12T18:51:29;98977.34;;;9.94;69.29
21185;BME280;18176;49.502;11.754;2023-02-12T18:55:32;98954.03;;;9.66;69.51
21185;BME280;18176;49.502;11.754;2023-02-12T18:59:33;98978.28;;;9.78;69.63
21185;BME280;18176;49.502;11.754;2023-02-12T19:03:36;98973.22;;;9.68;69.67
21185;BME280;18176;49.502;11.754;2023-02-12T19:07:36;98972.72;;;9.65;69.87
21185;BME280;18176;49.502;11.754;2023-02-12T19:11:37;98968.78;;;9.61;70.42
21185;BME280;18176;49.502;11.754;2023-02-12T19:15:38;98984.66;;;9.61;70.69
21185;BME280;18176;49.502;11.754;2023-02-12T19:19:42;98960.25;;;9.51;70.83
21185;BME280;18176;49.502;11.754;2023-02-12T19:23:43;98986.97;;;9.64;70.95
21185;BME280;18176;49.502;11.754;2023-02-12T19:27:45;98951.88;;;9.39;70.53
21185;BME280;18176;49.502;11.754;2023-02-12T19:31:46;98971.19;;;9.40;70.49
21185;BME280;18176;49.502;11.754;2023-02-12T19:35:51;98990.00;;;9.53;70.53
21185;BME280;18176;49.502;11.754;2023-02-12T19:39:51;98942.03;;;9.17;70.77
21185;BME280;18176;49.502;11.754;2023-02-12T19:43:53;98993.00;;;9.42;71.47
21185;BME280;18176;49.502;11.754;2023-02-12T19:47:54;98988.22;;;9.37;71.58
21185;BME280;18176;49.502;11.754;2023-02-12T19:51:57;98988.09;;;9.39;71.43
21185;BME280;18176;49.502;11.754;2023-02-12T19:56:00;98978.34;;;9.31;71.22
21185;BME280;18176;49.502;11.754;2023-02-12T20:00:01;98945.06;;;9.06;71.68
21185;BME280;18176;49.502;11.754;2023-02-12T20:04:02;98923.75;;;8.99;71.45
21185;BME280;18176;49.502;11.754;2023-02-12T20:08:06;98922.09;;;8.98;71.33
21185;BME280;18176;49.502;11.754;2023-02-12T20:12:06;98966.41;;;8.96;72.34
21185;BME280;18176;49.502;11.754;2023-02-12T20:16:09;98910.03;;;8.49;73.01
21185;BME280;18176;49.502;11.754;2023-02-12T20:20:12;98966.03;;;9.15;72.04
21185;BME280;18176;49.502;11.754;2023-02-12T20:24:15;98983.88;;;9.13;72.44
21185;BME280;18176;49.502;11.754;2023-02-12T20:28:16;98960.00;;;8.91;73.00
21185;BME280;18176;49.502;11.754;2023-02-12T20:32:16;98972.19;;;9.00;73.07
21185;BME280;18176;49.502;11.754;2023-02-12T20:36:17;98997.81;;;8.99;72.84
21185;BME280;18176;49.502;11.754;2023-02-12T20:40:31;98986.25;;;8.92;72.90
21185;BME280;18176;49.502;11.754;2023-02-12T20:44:32;98989.19;;;9.05;72.55
21185;BME280;18176;49.502;11.754;2023-02-12T20:48:33;98983.28;;;8.95;72.48
21185;BME280;18176;49.502;11.754;2023-02-12T20:52:33;98985.59;;;8.90;73.73
21185;BME280;18176;49.502;11.754;2023-02-12T20:56:37;98971.13;;;8.54;73.56
21185;BME280;18176;49.502;11.754;2023-02-12T21:00:37;98994.44;;;8.42;75.01
21185;BME280;18176;49.502;11.754;2023-02-12T21:04:38;98985.59;;;8.02;74.72
21185;BME280;18176;49.502;11.754;2023-02-12T21:08:40;98929.41;;;7.35;75.45
21185;BME280;18176;49.502;11.754;2023-02-12T21:12:43;98952.28;;;7.27;75.95
21185;BME280;18176;49.502;11.754;2023-02-12T21:16:44;98988.00;;;7.13;77.87
21185;BME280;18176;49.502;11.754;2023-02-12T21:20:44;98929.06;;;6.55;78.50
21185;BME280;18176;49.502;11.754;2023-02-12T21:24:47;98958.28;;;6.44;78.80
21185;BME280;18176;49.502;11.754;2023-02-12T21:28:52;98995.25;;;6.60;78.40
21185;BME280;18176;49.502;11.754;2023-02-12T21:32:52;98992.56;;;6.52;78.95
21185;BME280;18176;49.502;11.754;2023-02-12T21:36:55;98991.09;;;6.31;79.12
21185;BME280;18176;49.502;11.754;2023-02-12T21:40:55;98994.06;;;6.11;79.77
21185;BME280;18176;49.502;11.754;2023-02-12T21:44:58;98948.47;;;5.75;79.92